Time;durP1;ratioP1;P1;durP2;ratioP2;P2;SDS_P1;SDS_P2;PMS_P1;PMS_P2;Temp;Humidity;BMP_temperature;BMP_pressure;BME280_temperature;BME280_humidity;BME280_pressure;Samples;Min_cycle;Max_cycle;Signal;HPM_P1;HPM_P2
2021/08/18 00:02:26;;;;;;;33.15;19.40;;;14.30;99.90;;;;;;5052061;28;20033;-76
2021/08/18 00:04:52;;;;;;;35.53;19.33;;;14.30;99.90;;;;;;5052066;28;20383;-76
2021/08/18 00:07:20;;;;;;;29.02;18.35;;;14.40;99.90;;;;;;5052685;28;20056;-81
2021/08/18 00:09:47;;;;;;;29.13;17.55;;;14.30;99.90;;;;;;5084696;28;20025;-76
2021/08/18 00:12:13;;;;;;;28.38;17.90;;;14.30;99.90;;;;;;5052374;28;20029;-75
2021/08/18 00:14:40;;;;;;;29.60;17.85;;;14.30;99.90;;;;;;5067326;28;20041;-74
2021/08/18 00:17:06;;;;;;;30.80;19.27;;;14.40;99.90;;;;;;5061335;28;20462;-74
2021/08/18 00:19:32;;;;;;;28.75;18.00;;;14.40;99.90;;;;;;5056060;28;20051;-75
2021/08/18 00:21:59;;;;;;;28.48;17.77;;;14.40;99.90;;;;;;5056098;28;20037;-75
2021/08/18 00:24:25;;;;;;;26.35;17.27;;;14.40;99.90;;;;;;5056225;28;20029;-76
2021/08/18 00:26:51;;;;;;;27.35;16.77;;;14.40;99.90;;;;;;5063285;28;20024;-76
2021/08/18 00:29:18;;;;;;;30.55;16.77;;;14.40;99.90;;;;;;5075679;28;20043;-76
2021/08/18 00:31:44;;;;;;;25.85;16.20;;;14.40;99.90;;;;;;5059954;28;20040;-76
2021/08/18 00:34:10;;;;;;;24.63;15.25;;;14.40;99.90;;;;;;5060205;28;20056;-76
2021/08/18 00:36:36;;;;;;;25.50;16.65;;;14.40;99.90;;;;;;5063399;28;20033;-76
2021/08/18 00:39:03;;;;;;;23.08;15.85;;;14.50;99.90;;;;;;5065024;28;20020;-76
2021/08/18 00:41:29;;;;;;;23.45;15.85;;;14.50;99.90;;;;;;5070608;28;20033;-75
2021/08/18 00:43:56;;;;;;;22.65;14.73;;;14.40;99.90;;;;;;5055778;28;20040;-75
2021/08/18 00:46:22;;;;;;;27.00;15.93;;;14.40;99.90;;;;;;5055914;28;20029;-76
2021/08/18 00:48:48;;;;;;;24.08;15.25;;;14.40;99.90;;;;;;5060099;28;20381;-75
2021/08/18 00:51:15;;;;;;;23.15;13.75;;;14.40;99.90;;;;;;5068130;28;20030;-75
2021/08/18 00:53:41;;;;;;;25.50;14.85;;;14.40;99.90;;;;;;5061821;28;20037;-75
2021/08/18 00:56:09;;;;;;;21.55;13.45;;;14.40;99.90;;;;;;5055840;28;20025;-75
2021/08/18 00:58:36;;;;;;;23.23;14.10;;;14.50;99.90;;;;;;5055056;28;20063;-76
2021/08/18 01:01:03;;;;;;;21.52;13.38;;;14.50;99.90;;;;;;5055789;28;20033;-75
2021/08/18 01:03:29;;;;;;;21.27;13.20;;;14.50;99.90;;;;;;5055908;28;20068;-77
2021/08/18 01:05:56;;;;;;;20.30;14.02;;;14.50;99.90;;;;;;5055869;28;20394;-76
2021/08/18 01:08:22;;;;;;;20.10;13.32;;;14.50;99.90;;;;;;5055115;28;20033;-77
2021/08/18 01:10:49;;;;;;;20.90;13.85;;;14.50;99.90;;;;;;5056085;28;20033;-77
2021/08/18 01:13:16;;;;;;;20.58;13.23;;;14.50;99.90;;;;;;5054783;28;20045;-77
2021/08/18 01:15:42;;;;;;;19.25;13.43;;;14.50;99.90;;;;;;5054645;28;20386;-79
2021/08/18 01:18:09;;;;;;;18.20;12.20;;;14.60;99.90;;;;;;5055378;28;20029;-76
2021/08/18 01:20:41;;;;;;;18.63;12.07;;;14.50;99.90;;;;;;5054700;28;20041;-75
2021/08/18 01:23:13;;;;;;;19.48;13.07;;;14.50;99.90;;;;;;5054817;28;20037;-75
2021/08/18 01:25:43;;;;;;;14.98;10.82;;;14.60;99.90;;;;;;5056083;28;20398;-76
2021/08/18 01:28:10;;;;;;;17.15;10.60;;;14.60;99.90;;;;;;5055710;28;20032;-76
2021/08/18 01:30:37;;;;;;;16.52;12.13;;;14.60;99.90;;;;;;5063982;28;20035;-76
2021/08/18 01:33:09;;;;;;;16.95;12.15;;;14.60;99.90;;;;;;5070154;28;20041;-75
2021/08/18 01:35:42;;;;;;;15.95;11.52;;;14.60;99.90;;;;;;5056967;28;20029;-77
2021/08/18 01:38:10;;;;;;;18.95;12.82;;;14.60;99.90;;;;;;5055691;28;20028;-76
2021/08/18 01:40:39;;;;;;;17.67;11.88;;;14.60;99.90;;;;;;5055057;28;20044;-77
2021/08/18 01:43:06;;;;;;;14.93;11.35;;;14.60;99.90;;;;;;5055033;28;20049;-77
2021/08/18 01:45:38;;;;;;;14.27;10.38;;;14.70;99.90;;;;;;5061985;28;20031;-76
2021/08/18 01:48:19;;;;;;;12.73;9.32;;;14.70;99.90;;;;;;5056543;28;20037;-77
2021/08/18 01:50:47;;;;;;;14.10;10.30;;;14.70;99.90;;;;;;5063965;28;20033;-76
2021/08/18 01:53:18;;;;;;;15.43;11.35;;;14.70;99.90;;;;;;5069269;28;20041;-77
2021/08/18 01:55:44;;;;;;;;;;;14.70;99.90;;;;;;5055678;28;20040;-77
2021/08/18 01:58:10;;;;;;;23.58;14.80;;;14.70;99.90;;;;;;5069993;28;19913;-77
2021/08/18 02:00:37;;;;;;;24.08;15.30;;;14.70;99.90;;;;;;5057010;28;20048;-77
2021/08/18 02:03:04;;;;;;;16.15;11.23;;;14.60;99.90;;;;;;5054531;28;20045;-77
2021/08/18 02:05:30;;;;;;;18.95;12.10;;;14.70;99.90;;;;;;5053871;28;20035;-75
2021/08/18 02:07:56;;;;;;;22.35;14.02;;;14.70;99.90;;;;;;5054442;28;20040;-75
2021/08/18 02:10:23;;;;;;;23.15;15.73;;;14.70;99.90;;;;;;5053856;28;20056;-81
2021/08/18 02:12:51;;;;;;;18.75;13.43;;;14.60;99.90;;;;;;5053698;28;20033;-75
2021/08/18 02:15:26;;;;;;;20.95;14.63;;;14.60;99.90;;;;;;5053874;28;20033;-75
2021/08/18 02:17:53;;;;;;;23.70;14.88;;;14.60;99.90;;;;;;5053839;28;20041;-75
2021/08/18 02:20:24;;;;;;;23.05;14.20;;;14.60;99.90;;;;;;5054266;28;20036;-76
2021/08/18 02:22:50;;;;;;;;;;;14.60;99.90;;;;;;5054216;28;20041;-76
2021/08/18 02:25:16;;;;;;;21.02;12.20;;;14.60;99.90;;;;;;5054085;28;19917;-75
2021/08/18 02:27:43;;;;;;;12.32;8.90;;;14.70;99.90;;;;;;5053557;28;20577;-76
2021/08/18 02:30:11;;;;;;;14.82;9.40;;;14.70;99.90;;;;;;5054006;28;20036;-75
2021/08/18 02:32:37;;;;;;;13.63;10.20;;;14.80;99.90;;;;;;5053615;28;20037;-75
2021/08/18 02:35:04;;;;;;;10.65;8.85;;;14.80;99.90;;;;;;5053683;28;20058;-76
2021/08/18 02:37:31;;;;;;;12.23;9.05;;;14.80;99.90;;;;;;5053001;28;20033;-75
2021/08/18 02:39:57;;;;;;;8.43;6.60;;;14.80;99.90;;;;;;5055111;28;20409;-76
2021/08/18 02:42:25;;;;;;;9.13;7.25;;;14.90;99.90;;;;;;5053527;28;20424;-82
2021/08/18 02:44:52;;;;;;;7.45;6.50;;;15.00;99.90;;;;;;5068971;28;20070;-75
2021/08/18 02:47:18;;;;;;;7.28;5.43;;;14.90;99.90;;;;;;5053301;28;20052;-75
2021/08/18 02:49:44;;;;;;;6.15;5.22;;;15.00;99.90;;;;;;5056114;28;20037;-75
2021/08/18 02:52:11;;;;;;;6.80;6.10;;;15.00;99.90;;;;;;5053507;28;20036;-75
2021/08/18 02:54:37;;;;;;;7.05;6.32;;;15.10;99.90;;;;;;5053341;28;20033;-75
2021/08/18 02:57:03;;;;;;;7.07;6.15;;;15.10;99.90;;;;;;5060146;28;20032;-77
2021/08/18 02:59:30;;;;;;;9.68;7.82;;;15.00;99.90;;;;;;5053291;28;20405;-75
2021/08/18 03:01:56;;;;;;;8.25;7.20;;;15.00;99.90;;;;;;5052973;28;20029;-74
2021/08/18 03:04:22;;;;;;;9.05;7.93;;;14.90;99.90;;;;;;5065848;28;20041;-75
2021/08/18 03:06:49;;;;;;;11.05;8.32;;;14.90;99.90;;;;;;5054231;28;20355;-75
2021/08/18 03:09:15;;;;;;;8.52;7.53;;;14.80;99.90;;;;;;5051820;28;20037;-79
2021/08/18 03:11:41;;;;;;;11.05;8.02;;;14.80;99.90;;;;;;5054273;28;20033;-75
2021/08/18 03:14:07;;;;;;;12.60;9.35;;;14.80;99.90;;;;;;5069841;28;20040;-75
2021/08/18 03:16:33;;;;;;;11.23;8.30;;;14.80;99.90;;;;;;5052500;28;20052;-76
2021/08/18 03:18:59;;;;;;;9.85;8.85;;;14.80;99.90;;;;;;5056169;28;20020;-75
2021/08/18 03:21:26;;;;;;;11.95;9.52;;;14.80;99.90;;;;;;5072080;28;20028;-77
2021/08/18 03:23:52;;;;;;;11.95;10.38;;;14.80;99.90;;;;;;5066206;28;20037;-76
2021/08/18 03:26:18;;;;;;;11.35;10.13;;;14.80;99.90;;;;;;5052588;28;20040;-76
2021/08/18 03:28:44;;;;;;;11.48;10.07;;;14.80;99.90;;;;;;5052608;28;20028;-76
2021/08/18 03:31:10;;;;;;;13.65;11.48;;;14.80;99.90;;;;;;5052846;28;20040;-76
2021/08/18 03:33:36;;;;;;;12.70;10.38;;;14.80;99.90;;;;;;5051858;28;20102;-76
2021/08/18 03:36:03;;;;;;;11.82;10.63;;;14.80;99.90;;;;;;5053340;28;20045;-76
2021/08/18 03:38:29;;;;;;;20.02;13.63;;;14.80;99.90;;;;;;5068824;28;20033;-76
2021/08/18 03:40:55;;;;;;;16.25;13.27;;;14.80;99.90;;;;;;5059216;28;20066;-76
2021/08/18 03:43:22;;;;;;;15.40;12.27;;;14.80;99.90;;;;;;5052833;28;20512;-75
2021/08/18 03:45:48;;;;;;;13.73;12.07;;;14.80;99.90;;;;;;5052323;28;20044;-75
2021/08/18 03:48:14;;;;;;;17.80;13.60;;;14.70;99.90;;;;;;5052165;28;20055;-75
2021/08/18 03:50:41;;;;;;;16.73;14.68;;;14.70;99.90;;;;;;5052571;28;20100;-76
2021/08/18 03:53:07;;;;;;;17.48;14.10;;;14.70;99.90;;;;;;5059997;28;20474;-75
2021/08/18 03:55:33;;;;;;;20.55;15.75;;;14.70;99.90;;;;;;5066824;28;20056;-76
2021/08/18 03:57:59;;;;;;;19.58;15.00;;;14.70;99.90;;;;;;5052188;28;20028;-76
2021/08/18 04:00:26;;;;;;;20.60;14.30;;;14.70;99.90;;;;;;5066600;28;20024;-85
2021/08/18 04:02:52;;;;;;;18.67;14.52;;;14.60;99.90;;;;;;5060935;28;20390;-78
2021/08/18 04:05:18;;;;;;;22.65;15.50;;;14.60;99.90;;;;;;5072457;28;20032;-75
2021/08/18 04:07:44;;;;;;;21.27;14.35;;;14.70;99.90;;;;;;5056984;28;20029;-75
2021/08/18 04:10:11;;;;;;;21.70;14.80;;;14.70;99.90;;;;;;5067199;28;20032;-75
2021/08/18 04:12:58;;;;;;;21.38;15.02;;;14.70;99.90;;;;;;5051701;28;20482;-75
2021/08/18 04:15:27;;;;;;;20.63;15.07;;;14.60;99.90;;;;;;5063843;28;20363;-75
2021/08/18 04:17:54;;;;;;;22.13;16.17;;;14.60;99.90;;;;;;5052835;28;20036;-75
2021/08/18 04:20:21;;;;;;;24.02;16.55;;;14.60;99.90;;;;;;5068813;28;20042;-76
2021/08/18 04:22:48;;;;;;;22.70;16.00;;;14.60;99.90;;;;;;5051840;28;20481;-76
2021/08/18 04:25:16;;;;;;;24.75;17.23;;;14.60;99.90;;;;;;5052142;28;20044;-76
2021/08/18 04:27:43;;;;;;;26.60;17.35;;;14.50;99.90;;;;;;5051618;28;20389;-76
2021/08/18 04:30:11;;;;;;;25.15;18.42;;;14.50;99.90;;;;;;5064845;28;20032;-76
2021/08/18 04:32:38;;;;;;;24.67;17.85;;;14.50;99.90;;;;;;5056691;28;20056;-76
2021/08/18 04:35:07;;;;;;;25.67;19.27;;;14.50;99.90;;;;;;5051939;28;20033;-76
2021/08/18 04:37:35;;;;;;;26.40;18.92;;;14.50;99.90;;;;;;5054944;28;20032;-76
2021/08/18 04:40:06;;;;;;;26.90;18.55;;;14.50;99.90;;;;;;5071737;28;20029;-76
2021/08/18 04:42:46;;;;;;;23.00;15.23;;;14.50;99.90;;;;;;5055003;28;20036;-76
2021/08/18 04:45:14;;;;;;;26.13;17.70;;;14.60;99.90;;;;;;5052280;28;20092;-76
2021/08/18 04:47:41;;;;;;;21.58;16.15;;;14.60;99.90;;;;;;5062471;28;20033;-76
2021/08/18 04:50:09;;;;;;;24.55;15.90;;;14.60;99.90;;;;;;5063588;28;20025;-76
2021/08/18 04:52:36;;;;;;;20.98;15.07;;;14.60;99.90;;;;;;5051357;28;20455;-76
2021/08/18 04:55:03;;;;;;;19.33;15.02;;;14.60;99.90;;;;;;5071357;28;20363;-76
2021/08/18 04:57:29;;;;;;;19.00;15.80;;;14.70;99.90;;;;;;5052061;28;20044;-78
2021/08/18 04:59:55;;;;;;;18.42;14.15;;;14.70;99.90;;;;;;5071989;28;20033;-77
2021/08/18 05:02:22;;;;;;;18.73;14.18;;;14.70;99.90;;;;;;5072041;28;20029;-77
2021/08/18 05:04:48;;;;;;;20.35;14.55;;;14.80;99.90;;;;;;5056476;28;20033;-77
2021/08/18 05:07:14;;;;;;;20.58;14.90;;;14.80;99.90;;;;;;5064663;28;20036;-78
2021/08/18 05:09:40;;;;;;;18.65;13.82;;;14.90;99.90;;;;;;5072839;28;20033;-77
2021/08/18 05:12:07;;;;;;;18.20;13.65;;;14.90;99.90;;;;;;5071934;28;20040;-76
2021/08/18 05:14:33;;;;;;;21.02;14.68;;;14.90;99.90;;;;;;5055038;28;20037;-76
2021/08/18 05:16:59;;;;;;;20.02;13.13;;;15.00;99.90;;;;;;5055608;28;20052;-76
2021/08/18 05:19:25;;;;;;;17.00;12.70;;;15.10;99.90;;;;;;5055840;28;20025;-76
2021/08/18 05:21:51;;;;;;;16.88;11.52;;;15.10;99.90;;;;;;5055042;28;20037;-76
2021/08/18 05:24:17;;;;;;;16.38;12.63;;;15.20;99.90;;;;;;5055808;28;20037;-76
2021/08/18 05:26:44;;;;;;;14.07;11.60;;;15.20;99.90;;;;;;5057175;28;20032;-76
2021/08/18 05:29:10;;;;;;;18.33;11.05;;;15.20;99.90;;;;;;5056153;28;20025;-77
2021/08/18 05:31:36;;;;;;;14.10;10.82;;;15.30;99.90;;;;;;5055616;28;20033;-76
2021/08/18 05:34:02;;;;;;;15.40;11.07;;;15.30;99.90;;;;;;5055344;28;20048;-76
2021/08/18 05:36:28;;;;;;;13.63;11.57;;;15.30;99.90;;;;;;5067270;28;20398;-84
2021/08/18 05:38:54;;;;;;;13.40;10.68;;;15.30;99.90;;;;;;5066058;28;20414;-76
2021/08/18 05:41:20;;;;;;;14.05;11.15;;;15.40;99.90;;;;;;5054762;28;20028;-76
2021/08/18 05:43:47;;;;;;;17.67;11.07;;;15.40;99.90;;;;;;5054078;28;20055;-77
2021/08/18 05:46:13;;;;;;;12.82;10.27;;;15.50;99.90;;;;;;5055102;28;20040;-76
2021/08/18 05:48:39;;;;;;;14.18;9.55;;;15.50;99.90;;;;;;5054860;28;20386;-76
2021/08/18 05:51:07;;;;;;;14.13;9.77;;;15.50;99.90;;;;;;5054669;28;20025;-76
2021/08/18 05:53:34;;;;;;;13.18;10.32;;;15.60;99.90;;;;;;5054437;28;20054;-76
2021/08/18 05:56:00;;;;;;;14.15;10.50;;;15.60;99.90;;;;;;5054546;28;20036;-76
2021/08/18 05:58:26;;;;;;;12.48;9.70;;;15.60;99.90;;;;;;5054691;28;20044;-76
2021/08/18 06:00:52;;;;;;;11.80;10.20;;;15.70;99.90;;;;;;5054816;28;20033;-76
2021/08/18 06:03:19;;;;;;;11.38;9.77;;;15.70;99.90;;;;;;5054761;28;20398;-80
2021/08/18 06:05:45;;;;;;;14.60;10.65;;;15.70;99.90;;;;;;5057673;28;20036;-76
2021/08/18 06:08:11;;;;;;;10.00;8.77;;;15.80;99.90;;;;;;5060317;28;20597;-76
2021/08/18 06:10:37;;;;;;;11.25;9.27;;;15.80;99.90;;;;;;5055148;28;20029;-76
2021/08/18 06:13:03;;;;;;;15.30;9.85;;;15.80;99.90;;;;;;5056097;28;20398;-77
2021/08/18 06:15:31;;;;;;;15.40;9.30;;;15.80;99.90;;;;;;5073136;28;20044;-85
2021/08/18 06:17:57;;;;;;;12.55;8.73;;;15.80;99.90;;;;;;5059842;28;20029;-77
2021/08/18 06:20:24;;;;;;;12.05;9.32;;;15.80;99.90;;;;;;5055740;28;20033;-77
2021/08/18 06:22:51;;;;;;;11.73;9.20;;;15.70;99.90;;;;;;5055495;28;20028;-77
2021/08/18 06:25:17;;;;;;;12.02;9.23;;;15.80;99.90;;;;;;5054831;28;20508;-74
2021/08/18 06:27:44;;;;;;;12.73;8.40;;;15.80;99.90;;;;;;5054477;28;20041;-74
2021/08/18 06:30:11;;;;;;;12.40;8.68;;;15.90;99.90;;;;;;5071363;28;20051;-76
2021/08/18 06:32:38;;;;;;;10.95;8.57;;;16.00;99.90;;;;;;5056348;28;20033;-76
2021/08/18 06:35:05;;;;;;;9.43;7.90;;;16.10;99.90;;;;;;5054422;28;20052;-76
2021/08/18 06:37:32;;;;;;;10.10;7.47;;;16.20;99.90;;;;;;5054139;28;20477;-80
2021/08/18 06:39:59;;;;;;;12.02;7.03;;;16.20;99.90;;;;;;5088023;28;20036;-78
2021/08/18 06:42:25;;;;;;;14.43;7.68;;;16.40;99.90;;;;;;5069485;28;20048;-77
2021/08/18 06:44:52;;;;;;;10.98;7.45;;;16.50;99.90;;;;;;5053966;28;20040;-77
2021/08/18 06:47:18;;;;;;;8.38;6.80;;;16.50;99.90;;;;;;5053903;28;20040;-77
2021/08/18 06:49:44;;;;;;;7.88;6.40;;;16.50;99.90;;;;;;5053961;28;20045;-74
2021/08/18 06:52:11;;;;;;;8.32;6.45;;;16.50;99.90;;;;;;5056152;28;20029;-76
2021/08/18 06:54:37;;;;;;;9.48;6.50;;;16.50;99.90;;;;;;5053907;28;20052;-73
2021/08/18 06:57:04;;;;;;;8.63;6.20;;;16.60;99.90;;;;;;5054253;28;20025;-75
2021/08/18 06:59:30;;;;;;;7.93;5.82;;;16.70;99.90;;;;;;5053376;28;20036;-76
2021/08/18 07:01:56;;;;;;;8.27;5.47;;;16.80;99.90;;;;;;5053899;28;20036;-76
2021/08/18 07:04:23;;;;;;;9.68;6.07;;;16.80;99.90;;;;;;5053454;28;20040;-76
2021/08/18 07:06:49;;;;;;;7.80;5.97;;;16.70;99.90;;;;;;5068100;28;20051;-76
2021/08/18 07:09:15;;;;;;;7.97;5.97;;;16.80;99.90;;;;;;5060463;28;20045;-75
2021/08/18 07:11:41;;;;;;;6.68;5.43;;;16.90;99.90;;;;;;5052379;28;20032;-77
2021/08/18 07:14:08;;;;;;;8.18;5.85;;;17.00;99.90;;;;;;5052696;28;20372;-76
2021/08/18 07:16:35;;;;;;;7.22;5.25;;;17.00;99.90;;;;;;5069863;28;20056;-77
2021/08/18 07:19:02;;;;;;;6.80;5.20;;;17.10;99.90;;;;;;5067834;28;20683;-77
2021/08/18 07:21:29;;;;;;;6.80;5.20;;;17.10;99.90;;;;;;5062231;28;20029;-76
2021/08/18 07:23:56;;;;;;;8.95;5.28;;;17.20;99.90;;;;;;5050968;28;20040;-77
2021/08/18 07:26:25;;;;;;;6.80;5.30;;;17.30;99.90;;;;;;5053518;28;20033;-76
2021/08/18 07:28:56;;;;;;;7.40;4.93;;;17.40;99.90;;;;;;5052611;28;20044;-76
2021/08/18 07:31:23;;;;;;;10.27;5.18;;;17.40;99.90;;;;;;5052730;28;20037;-75
2021/08/18 07:33:50;;;;;;;5.80;4.30;;;17.50;99.90;;;;;;5051728;28;20056;-75
2021/08/18 07:36:16;;;;;;;5.72;4.55;;;17.40;99.90;;;;;;5052529;28;20036;-75
2021/08/18 07:38:42;;;;;;;7.18;5.05;;;17.30;99.90;;;;;;5052403;28;20043;-75
2021/08/18 07:41:08;;;;;;;7.68;4.43;;;17.20;99.90;;;;;;5052166;28;20048;-74
2021/08/18 07:43:35;;;;;;;8.02;4.72;;;17.10;99.90;;;;;;5051871;28;20070;-76
2021/08/18 07:46:01;;;;;;;6.70;4.28;;;17.20;99.90;;;;;;5052624;28;20364;-74
2021/08/18 07:48:29;;;;;;;6.53;4.18;;;17.20;99.90;;;;;;5052581;28;20033;-75
2021/08/18 07:50:56;;;;;;;7.28;4.30;;;17.10;99.90;;;;;;5065503;28;20387;-74
2021/08/18 07:53:22;;;;;;;6.97;5.15;;;17.10;99.90;;;;;;5052656;28;20036;-75
2021/08/18 07:55:48;;;;;;;7.30;4.47;;;17.10;99.90;;;;;;5052744;28;20040;-75
2021/08/18 07:58:14;;;;;;;6.55;4.32;;;17.20;99.90;;;;;;5052312;28;20036;-76
2021/08/18 08:00:41;;;;;;;5.40;4.05;;;17.20;99.90;;;;;;5052294;28;20037;-76
2021/08/18 08:03:10;;;;;;;6.65;4.38;;;17.20;99.90;;;;;;5052470;28;20036;-75
2021/08/18 08:05:36;;;;;;;5.97;4.15;;;17.30;99.90;;;;;;5052454;28;20029;-76
2021/08/18 08:08:06;;;;;;;6.70;4.47;;;17.40;99.90;;;;;;5058837;28;20028;-75
2021/08/18 08:10:32;;;;;;;4.70;4.20;;;17.50;99.90;;;;;;5060818;28;20048;-76
2021/08/18 08:12:58;;;;;;;6.10;4.38;;;17.60;99.90;;;;;;5066744;28;20386;-75
2021/08/18 08:15:24;;;;;;;6.75;4.07;;;17.60;99.90;;;;;;5052023;28;20394;-75
2021/08/18 08:17:51;;;;;;;5.75;4.10;;;17.60;99.90;;;;;;5061876;28;20063;-75
2021/08/18 08:20:17;;;;;;;4.32;3.53;;;17.70;99.90;;;;;;5071402;28;20386;-75
2021/08/18 08:22:43;;;;;;;3.80;3.17;;;17.70;99.90;;;;;;5065690;28;20048;-75
2021/08/18 08:25:10;;;;;;;4.10;2.72;;;17.70;99.90;;;;;;5052509;28;20044;-75
2021/08/18 08:27:37;;;;;;;3.78;2.10;;;17.60;99.90;;;;;;5051602;28;20475;-76
2021/08/18 08:30:03;;;;;;;3.72;2.25;;;17.60;99.90;;;;;;5062230;28;20036;-74
2021/08/18 08:32:29;;;;;;;4.35;2.10;;;17.60;99.90;;;;;;5070107;28;20063;-74
2021/08/18 08:34:56;;;;;;;4.30;1.90;;;17.60;99.90;;;;;;5058352;28;20045;-74
2021/08/18 08:37:22;;;;;;;3.95;2.80;;;17.60;99.90;;;;;;5056199;28;20033;-74
2021/08/18 08:39:48;;;;;;;4.95;2.38;;;17.80;99.90;;;;;;5057057;28;20024;-74
2021/08/18 08:42:15;;;;;;;4.55;2.15;;;18.10;99.90;;;;;;5057144;28;20037;-75
2021/08/18 08:44:42;;;;;;;4.68;2.15;;;18.10;99.90;;;;;;5055662;28;20489;-75
2021/08/18 08:47:08;;;;;;;4.43;3.17;;;18.30;99.90;;;;;;5057067;28;20132;-75
2021/08/18 08:49:35;;;;;;;5.35;3.20;;;18.60;99.90;;;;;;5055909;28;20025;-77
2021/08/18 08:52:01;;;;;;;3.40;2.75;;;18.40;99.90;;;;;;5074097;28;20025;-75
2021/08/18 08:54:28;;;;;;;3.40;2.80;;;18.30;99.90;;;;;;5056771;28;20458;-75
2021/08/18 08:56:54;;;;;;;3.50;2.97;;;18.30;99.90;;;;;;5056998;28;20445;-75
2021/08/18 08:59:20;;;;;;;3.70;2.55;;;18.10;99.90;;;;;;5075903;28;20033;-73
2021/08/18 09:02:08;;;;;;;4.55;2.05;;;18.10;99.90;;;;;;5057058;28;20029;-75
2021/08/18 09:04:44;;;;;;;2.85;2.55;;;17.90;99.90;;;;;;5067065;28;20044;-78
2021/08/18 09:07:23;;;;;;;2.83;1.98;;;18.10;99.90;;;;;;5066429;28;20402;-74
2021/08/18 09:09:58;;;;;;;2.38;1.90;;;18.10;99.90;;;;;;5055501;28;20029;-74
2021/08/18 09:12:29;;;;;;;2.70;1.50;;;18.30;99.90;;;;;;5054970;28;20029;-73
2021/08/18 09:14:55;;;;;;;2.55;2.03;;;18.50;99.90;;;;;;5055005;28;20052;-73
2021/08/18 09:17:29;;;;;;;4.82;2.15;;;18.50;99.90;;;;;;5055504;28;20033;-74
2021/08/18 09:19:59;;;;;;;2.63;1.75;;;18.70;99.10;;;;;;5066764;28;20041;-74
2021/08/18 09:22:26;;;;;;;3.28;1.80;;;18.80;99.00;;;;;;5055308;28;20029;-74
2021/08/18 09:25:10;;;;;;;3.55;2.30;;;19.00;97.70;;;;;;5054629;28;20045;-75
2021/08/18 09:27:37;;;;;;;3.13;2.80;;;19.20;97.10;;;;;;5055087;28;20429;-76
2021/08/18 09:30:05;;;;;;;2.47;2.17;;;19.20;97.80;;;;;;5055073;28;20029;-75
2021/08/18 09:32:36;;;;;;;2.25;1.70;;;19.20;96.30;;;;;;5065478;28;20029;-75
2021/08/18 09:35:10;;;;;;;3.67;2.28;;;19.20;96.70;;;;;;5072845;28;20044;-75
2021/08/18 09:37:38;;;;;;;3.00;2.35;;;19.10;95.80;;;;;;5079764;28;20029;-79
2021/08/18 09:40:26;;;;;;;3.50;2.80;;;19.00;97.10;;;;;;5070881;28;20037;-74
2021/08/18 09:42:53;;;;;;;3.05;2.40;;;19.00;96.20;;;;;;5078027;28;20033;-76
2021/08/18 09:45:23;;;;;;;4.80;3.28;;;18.80;96.80;;;;;;5056547;28;20036;-74
2021/08/18 09:47:56;;;;;;;4.60;3.25;;;18.90;96.00;;;;;;5072779;28;20036;-75
2021/08/18 09:50:24;;;;;;;4.68;2.67;;;18.90;95.50;;;;;;5062213;28;20485;-76
2021/08/18 09:52:51;;;;;;;3.67;2.92;;;18.70;95.90;;;;;;5054216;28;20021;-76
2021/08/18 09:55:25;;;;;;;5.95;3.95;;;18.70;95.80;;;;;;5056286;28;20049;-76
2021/08/18 09:57:51;;;;;;;5.75;3.75;;;18.60;95.80;;;;;;5054145;28;20036;-76
2021/08/18 10:00:19;;;;;;;4.40;3.50;;;18.70;95.90;;;;;;5057907;28;20041;-76
2021/08/18 10:02:45;;;;;;;4.43;3.35;;;18.60;96.30;;;;;;5054124;28;20037;-76
2021/08/18 10:05:12;;;;;;;6.15;3.13;;;18.70;96.50;;;;;;5054702;28;20037;-75
2021/08/18 10:07:39;;;;;;;6.43;3.15;;;18.80;96.40;;;;;;5054232;28;20036;-75
2021/08/18 10:10:05;;;;;;;5.47;3.15;;;19.00;95.60;;;;;;5054520;28;20036;-75
2021/08/18 10:12:32;;;;;;;4.47;3.13;;;19.00;95.60;;;;;;5054454;28;20025;-78
2021/08/18 10:15:03;;;;;;;3.78;3.40;;;19.30;96.30;;;;;;5054220;28;20402;-76
2021/08/18 10:17:30;;;;;;;4.30;3.15;;;19.70;94.80;;;;;;5054603;28;20040;-77
2021/08/18 10:19:57;;;;;;;8.95;3.67;;;19.90;94.30;;;;;;5053344;28;20036;-76
2021/08/18 10:22:28;;;;;;;5.40;3.58;;;19.90;94.60;;;;;;5062494;28;20028;-76
2021/08/18 10:24:55;;;;;;;4.47;3.80;;;19.70;94.00;;;;;;5065558;28;20025;-76
2021/08/18 10:27:45;;;;;;;4.43;3.13;;;19.60;93.20;;;;;;5054367;28;20064;-75
2021/08/18 10:30:25;;;;;;;4.32;3.63;;;19.40;94.00;;;;;;5041765;28;20048;-76
2021/08/18 10:32:52;;;;;;;;;;;19.20;94.00;;;;;;5054300;28;20040;-77
2021/08/18 10:35:36;;;;;;;8.52;4.53;;;19.00;93.60;;;;;;5054095;28;19917;-76
2021/08/18 10:38:24;;;;;;;7.50;4.45;;;18.80;94.20;;;;;;5053552;28;20052;-77
2021/08/18 10:40:50;;;;;;;6.35;4.95;;;18.70;95.00;;;;;;5053557;28;20040;-77
2021/08/18 10:43:51;;;;;;;5.70;5.05;;;18.80;95.20;;;;;;5072389;28;20095;-76
2021/08/18 10:46:17;;;;;;;6.38;4.88;;;18.70;94.40;;;;;;5053754;28;20493;-76
2021/08/18 10:48:55;;;;;;;6.05;4.70;;;18.70;95.40;;;;;;5061330;28;20036;-76
2021/08/18 10:51:54;;;;;;;5.47;4.47;;;18.70;94.70;;;;;;5067375;28;20045;-76
2021/08/18 10:54:29;;;;;;;5.82;4.60;;;18.90;94.60;;;;;;5012188;28;20517;-76
2021/08/18 10:57:00;;;;;;;6.63;4.75;;;19.00;94.30;;;;;;5064939;28;20043;-77
2021/08/18 10:59:35;;;;;;;8.38;4.25;;;19.10;94.00;;;;;;5067254;28;20052;-76
2021/08/18 11:02:08;;;;;;;5.05;3.47;;;19.30;93.60;;;;;;5052412;28;20040;-75
2021/08/18 11:04:49;;;;;;;4.25;3.42;;;19.40;93.40;;;;;;5062643;28;20064;-75
2021/08/18 11:07:16;;;;;;;7.22;4.28;;;19.70;92.80;;;;;;5053292;28;20029;-75
2021/08/18 11:09:48;;;;;;;4.22;2.90;;;19.80;92.50;;;;;;5066764;28;20028;-76
2021/08/18 11:12:39;;;;;;;2.72;2.40;;;20.00;93.30;;;;;;5055117;28;20025;-76
2021/08/18 11:15:26;;;;;;;4.70;2.38;;;20.00;92.50;;;;;;5053761;28;20033;-76
2021/08/18 11:17:57;;;;;;;5.00;2.38;;;20.00;92.70;;;;;;5044175;28;20063;-76
2021/08/18 11:20:28;;;;;;;3.22;1.85;;;19.80;92.50;;;;;;5064930;28;20033;-76
2021/08/18 11:22:59;;;;;;;2.90;2.00;;;19.60;92.10;;;;;;5071128;28;20025;-76
2021/08/18 11:25:27;;;;;;;3.05;2.10;;;19.50;92.40;;;;;;5055970;28;20037;-76
2021/08/18 11:27:56;;;;;;;4.38;2.22;;;19.30;92.10;;;;;;5053086;28;20028;-76
2021/08/18 11:30:30;;;;;;;3.17;2.17;;;19.30;93.00;;;;;;5053507;28;20415;-75
2021/08/18 11:33:20;;;;;;;3.72;2.00;;;19.30;93.50;;;;;;5059226;28;20044;-76
2021/08/18 11:35:47;;;;;;;3.88;2.00;;;19.30;93.50;;;;;;5054029;28;20037;-75
2021/08/18 11:38:13;;;;;;;2.65;1.63;;;19.30;93.90;;;;;;5052616;28;20036;-75
2021/08/18 11:40:40;;;;;;;3.20;1.95;;;19.30;94.30;;;;;;5052400;28;20037;-76
2021/08/18 11:43:07;;;;;;;3.10;1.60;;;19.30;95.00;;;;;;5052789;28;20029;-77
2021/08/18 11:45:35;;;;;;;2.55;1.77;;;19.50;94.60;;;;;;5069985;28;20389;-77
2021/08/18 11:48:06;;;;;;;2.10;0.90;;;19.70;92.20;;;;;;5054835;28;20037;-75
2021/08/18 11:50:32;;;;;;;;;;;19.90;91.90;;;;;;5052906;28;20037;-76
2021/08/18 11:53:00;;;;;;;1.83;1.23;;;19.90;91.40;;;;;;5052543;28;19908;-76
2021/08/18 11:55:28;;;;;;;3.10;1.70;;;20.10;90.70;;;;;;5052629;28;20053;-76
2021/08/18 11:58:07;;;;;;;3.10;1.45;;;20.30;90.10;;;;;;5051493;28;20040;-76
2021/08/18 12:00:35;;;;;;;3.13;2.50;;;20.60;89.70;;;;;;5066121;28;20041;-75
2021/08/18 12:03:02;;;;;;;3.03;1.10;;;20.60;89.70;;;;;;5051925;28;20033;-76
2021/08/18 12:05:37;;;;;;;1.75;1.30;;;20.80;88.20;;;;;;5051985;28;20033;-76
2021/08/18 12:08:16;;;;;;;2.58;1.38;;;20.70;88.40;;;;;;5052141;28;20430;-77
2021/08/18 12:10:44;;;;;;;3.13;2.05;;;21.00;87.20;;;;;;5065113;28;20048;-76
2021/08/18 12:13:17;;;;;;;2.53;1.10;;;21.70;85.90;;;;;;5062520;28;20036;-76
2021/08/18 12:15:49;;;;;;;1.95;1.60;;;22.20;82.50;;;;;;5056181;28;20041;-76
2021/08/18 12:18:37;;;;;;;1.80;1.08;;;22.30;81.20;;;;;;5056831;28;20025;-76
2021/08/18 12:21:27;;;;;;;2.20;1.67;;;22.50;81.30;;;;;;5065564;28;20040;-77
2021/08/18 12:23:56;;;;;;;3.47;1.45;;;22.60;79.70;;;;;;5055947;28;20044;-77
2021/08/18 12:26:34;;;;;;;2.53;1.55;;;22.40;80.70;;;;;;5056138;28;20382;-77
2021/08/18 12:29:03;;;;;;;2.40;1.80;;;22.90;77.70;;;;;;5071272;28;20386;-76
2021/08/18 12:31:53;;;;;;;1.85;1.58;;;22.60;76.50;;;;;;5056488;28;20033;-75
2021/08/18 12:34:29;;;;;;;2.53;1.30;;;22.20;78.30;;;;;;5044652;28;20051;-75
2021/08/18 12:37:20;;;;;;;2.45;1.70;;;21.70;77.60;;;;;;5056084;28;20028;-76
2021/08/18 12:39:53;;;;;;;2.33;1.55;;;21.40;77.60;;;;;;5048460;28;20052;-76
2021/08/18 12:42:34;;;;;;;4.00;1.45;;;21.50;77.40;;;;;;5056116;28;20044;-77
2021/08/18 12:45:13;;;;;;;2.88;1.95;;;21.80;78.10;;;;;;5055542;28;20112;-77
2021/08/18 12:47:44;;;;;;;1.70;1.48;;;21.80;76.30;;;;;;5055923;28;20025;-74